Time,TemperatureF,DewpointF,PressureIn,WindDirection,WindDirectionDegrees,WindSpeedMPH,WindSpeedGustMPH,Humidity,HourlyPrecipIn,Conditions,Clouds,dailyrainin,SoftwareType,DateUTC
2013-03-22 00:02:00,65.0,43.0,29.66,NNW,346,2.0,-999.0,45,-99.99,,,-99.99,,2013-03-22 07:02:00,
2013-03-22 00:22:00,65.0,45.0,29.66,NW,313,8.0,-999.0,49,-99.99,,,-99.99,,2013-03-22 07:22:00,
2013-03-22 00:32:00,66.0,45.0,29.66,NW,306,7.0,-999.0,46,-99.99,,,-99.99,,2013-03-22 07:32:00,
2013-03-22 00:42:00,66.0,45.0,29.66,NW,306,7.0,-999.0,46,-99.99,,,-99.99,,2013-03-22 07:42:00,
2013-03-22 00:52:00,65.0,46.0,29.66,NW,305,8.0,-999.0,50,-99.99,,,-99.99,,2013-03-22 07:52:00,
2013-03-22 01:02:00,63.0,46.0,29.66,NW,311,7.0,-999.0,53,-99.99,,,-99.99,,2013-03-22 08:02:00,
2013-03-22 01:12:00,63.0,46.0,29.66,NW,311,7.0,-999.0,53,-99.99,,,-99.99,,2013-03-22 08:12:00,
2013-03-22 01:22:00,63.0,46.0,29.65,NW,308,8.0,-999.0,53,-99.99,,,-99.99,,2013-03-22 08:22:00,
2013-03-22 01:32:00,66.0,46.0,29.66,WNW,294,6.0,-999.0,48,-99.99,,,-99.99,,2013-03-22 08:32:00,
2013-03-22 01:42:00,66.0,46.0,29.66,WNW,294,6.0,-999.0,48,-99.99,,,-99.99,,2013-03-22 08:42:00,
2013-03-22 01:52:00,67.0,45.0,29.66,NW,315,2.0,-999.0,45,-99.99,,,-99.99,,2013-03-22 08:52:00,
2013-03-22 02:02:00,66.0,44.0,29.66,NW,316,3.0,-999.0,45,-99.99,,,-99.99,,2013-03-22 09:02:00,
2013-03-22 02:12:00,66.0,44.0,29.66,NW,316,3.0,-999.0,45,-99.99,,,-99.99,,2013-03-22 09:12:00,
2013-03-22 02:22:00,65.0,44.0,29.65,NW,317,3.0,-999.0,47,-99.99,,,-99.99,,2013-03-22 09:22:00,
2013-03-22 02:32:00,64.0,44.0,29.65,South,179,1.0,-999.0,48,-99.99,,,-99.99,,2013-03-22 09:32:00,
2013-03-22 02:42:00,64.0,44.0,29.65,South,179,1.0,-999.0,48,-99.99,,,-99.99,,2013-03-22 09:42:00,
2013-03-22 02:53:00,64.0,44.0,29.66,West,276,2.0,-999.0,48,-99.99,,,-99.99,,2013-03-22 09:53:00,
2013-03-22 03:03:00,64.0,45.0,29.65,NW,311,4.0,-999.0,50,-99.99,,,-99.99,,2013-03-22 10:03:00,
2013-03-22 03:12:00,64.0,45.0,29.65,NW,311,4.0,-999.0,50,-99.99,,,-99.99,,2013-03-22 10:12:00,
2013-03-22 03:22:00,61.0,44.0,29.65,WNW,292,7.0,-999.0,54,-99.99,,,-99.99,,2013-03-22 10:22:00,
2013-03-22 03:32:00,61.0,44.0,29.65,WNW,292,7.0,-999.0,54,-99.99,,,-99.99,,2013-03-22 10:32:00,
2013-03-22 03:42:00,61.0,44.0,29.65,WNW,292,7.0,-999.0,54,-99.99,,,-99.99,,2013-03-22 10:42:00,
2013-03-22 03:52:00,65.0,44.0,29.64,WNW,294,2.0,-999.0,46,-99.99,,,-99.99,,2013-03-22 10:52:00,
2013-03-22 04:02:00,62.0,43.0,29.64,NW,325,3.0,-999.0,49,-99.99,,,-99.99,,2013-03-22 11:02:00,
2013-03-22 04:12:00,62.0,43.0,29.64,NW,325,3.0,-999.0,49,-99.99,,,-99.99,,2013-03-22 11:12:00,
2013-03-22 04:22:00,60.0,42.0,29.65,NW,321,2.0,-999.0,51,-99.99,,,-99.99,,2013-03-22 11:22:00,
2013-03-22 04:32:00,63.0,41.0,29.65,WNW,303,3.0,-999.0,44,-99.99,,,-99.99,,2013-03-22 11:32:00,
2013-03-22 04:42:00,63.0,41.0,29.65,WNW,303,3.0,-999.0,44,-99.99,,,-99.99,,2013-03-22 11:42:00,
2013-03-22 04:52:00,60.0,41.0,29.65,NW,304,3.0,-999.0,49,-99.99,,,-99.99,,2013-03-22 11:52:00,
2013-03-22 05:02:00,57.0,42.0,29.65,NW,304,3.0,-999.0,57,-99.99,,,-99.99,,2013-03-22 12:02:00,
2013-03-22 05:12:00,59.0,41.0,29.65,NW,304,1.0,-999.0,51,-99.99,,,-99.99,,2013-03-22 12:12:00,
2013-03-22 05:22:00,59.0,41.0,29.65,NW,304,1.0,-999.0,51,-99.99,,,-99.99,,2013-03-22 12:22:00,
2013-03-22 05:32:00,61.0,40.0,29.65,NW,304,0.0,-999.0,46,-99.99,,,-99.99,,2013-03-22 12:32:00,
2013-03-22 05:42:00,61.0,40.0,29.65,NW,304,0.0,-999.0,46,-99.99,,,-99.99,,2013-03-22 12:42:00,
2013-03-22 05:51:00,60.0,41.0,29.65,NW,304,1.0,-999.0,50,-99.99,,,-99.99,,2013-03-22 12:51:00,
2013-03-22 06:02:00,56.0,44.0,29.65,NW,304,0.0,-999.0,63,-99.99,,,-99.99,,2013-03-22 13:02:00,
2013-03-22 06:12:00,56.0,44.0,29.65,NW,304,0.0,-999.0,63,-99.99,,,-99.99,,2013-03-22 13:12:00,
2013-03-22 06:32:00,56.0,41.0,29.66,NW,304,0.0,-999.0,57,-99.99,,,-99.99,,2013-03-22 13:32:00,
2013-03-22 06:42:00,56.0,41.0,29.66,NW,304,0.0,-999.0,57,-99.99,,,-99.99,,2013-03-22 13:42:00,
2013-03-22 06:52:00,55.0,43.0,29.67,ENE,58,0.0,-999.0,65,-99.99,,,-99.99,,2013-03-22 13:52:00,
2013-03-22 07:02:00,55.0,43.0,29.67,ENE,58,0.0,-999.0,63,-99.99,,,-99.99,,2013-03-22 14:02:00,
2013-03-22 07:12:00,55.0,43.0,29.67,ENE,58,0.0,-999.0,63,-99.99,,,-99.99,,2013-03-22 14:12:00,
2013-03-22 07:32:00,53.0,44.0,29.69,ENE,58,0.0,-999.0,71,-99.99,,,-99.99,,2013-03-22 14:32:00,
2013-03-22 07:42:00,53.0,44.0,29.69,ENE,58,0.0,-999.0,71,-99.99,,,-99.99,,2013-03-22 14:42:00,
2013-03-22 07:52:00,54.0,44.0,29.70,ENE,58,0.0,-999.0,69,-99.99,,,-99.99,,2013-03-22 14:52:00,
2013-03-22 08:02:00,56.0,46.0,29.70,ENE,58,0.0,-999.0,68,-99.99,,,-99.99,,2013-03-22 15:02:00,
2013-03-22 08:12:00,56.0,46.0,29.70,ENE,58,0.0,-999.0,68,-99.99,,,-99.99,,2013-03-22 15:12:00,
2013-03-22 08:22:00,58.0,46.0,29.71,ENE,58,0.0,-999.0,65,-99.99,,,-99.99,,2013-03-22 15:22:00,
2013-03-22 08:32:00,59.0,46.0,29.72,ENE,58,0.0,-999.0,61,-99.99,,,-99.99,,2013-03-22 15:32:00,
2013-03-22 08:42:00,59.0,46.0,29.72,ENE,58,0.0,-999.0,61,-99.99,,,-99.99,,2013-03-22 15:42:00,
2013-03-22 08:52:00,62.0,48.0,29.72,WNW,298,1.0,-999.0,61,-99.99,,,-99.99,,2013-03-22 15:52:00,
2013-03-22 09:02:00,64.0,50.0,29.72,NW,315,4.0,-999.0,60,-99.99,,,-99.99,,2013-03-22 16:02:00,
2013-03-22 09:13:00,66.0,48.0,29.72,WNW,294,4.0,-999.0,53,-99.99,,,-99.99,,2013-03-22 16:13:00,
2013-03-22 09:22:00,66.0,48.0,29.72,WNW,294,4.0,-999.0,53,-99.99,,,-99.99,,2013-03-22 16:22:00,
2013-03-22 09:32:00,68.0,43.0,29.72,WNW,296,9.0,-999.0,41,-99.99,,,-99.99,,2013-03-22 16:32:00,
2013-03-22 09:42:00,68.0,43.0,29.72,WNW,296,9.0,-999.0,41,-99.99,,,-99.99,,2013-03-22 16:42:00,
2013-03-22 09:52:00,70.0,44.0,29.73,NW,305,9.0,-999.0,39,-99.99,,,-99.99,,2013-03-22 16:52:00,
2013-03-22 10:02:00,71.0,44.0,29.73,NW,304,10.0,-999.0,38,-99.99,,,-99.99,,2013-03-22 17:02:00,
2013-03-22 10:12:00,71.0,44.0,29.73,NW,304,10.0,-999.0,38,-99.99,,,-99.99,,2013-03-22 17:12:00,
2013-03-22 10:22:00,71.0,44.0,29.73,NW,304,10.0,-999.0,38,-99.99,,,-99.99,,2013-03-22 17:22:00,
2013-03-22 10:32:00,73.0,41.0,29.74,West,277,11.0,-999.0,31,-99.99,,,-99.99,,2013-03-22 17:32:00,
2013-03-22 10:42:00,73.0,41.0,29.74,West,277,11.0,-999.0,31,-99.99,,,-99.99,,2013-03-22 17:42:00,
2013-03-22 10:53:00,74.0,41.0,29.74,WNW,284,11.0,-999.0,31,-99.99,,,-99.99,,2013-03-22 17:53:00,
2013-03-22 11:02:00,75.0,40.0,29.74,West,278,11.0,-999.0,28,-99.99,,,-99.99,,2013-03-22 18:02:00,
2013-03-22 11:11:00,75.0,40.0,29.74,West,278,11.0,-999.0,28,-99.99,,,-99.99,,2013-03-22 18:11:00,
2013-03-22 11:22:00,75.0,40.0,29.74,West,278,11.0,-999.0,28,-99.99,,,-99.99,,2013-03-22 18:22:00,
2013-03-22 11:32:00,78.0,36.0,29.73,WNW,301,12.0,-999.0,22,-99.99,,,-99.99,,2013-03-22 18:32:00,
2013-03-22 11:42:00,78.0,36.0,29.73,WNW,301,12.0,-999.0,22,-99.99,,,-99.99,,2013-03-22 18:42:00,
2013-03-22 11:52:00,78.0,38.0,29.73,WNW,294,8.0,-999.0,24,-99.99,,,-99.99,,2013-03-22 18:52:00,
2013-03-22 12:02:00,80.0,39.0,29.72,WNW,296,7.0,-999.0,23,-99.99,,,-99.99,,2013-03-22 19:02:00,
2013-03-22 12:12:00,80.0,39.0,29.72,WNW,296,7.0,-999.0,23,-99.99,,,-99.99,,2013-03-22 19:12:00,
2013-03-22 12:22:00,80.0,35.0,29.72,West,270,7.0,-999.0,20,-99.99,,,-99.99,,2013-03-22 19:22:00,
2013-03-22 12:32:00,82.0,37.0,29.72,WNW,290,12.0,-999.0,20,-99.99,,,-99.99,,2013-03-22 19:32:00,
2013-03-22 12:42:00,82.0,37.0,29.72,WNW,290,12.0,-999.0,20,-99.99,,,-99.99,,2013-03-22 19:42:00,
2013-03-22 12:51:00,81.0,36.0,29.72,WNW,284,12.0,-999.0,20,-99.99,,,-99.99,,2013-03-22 19:51:00,
2013-03-22 13:01:00,82.0,33.0,29.71,WNW,286,12.0,-999.0,17,-99.99,,,-99.99,,2013-03-22 20:01:00,
2013-03-22 13:12:00,82.0,33.0,29.71,WNW,286,12.0,-999.0,17,-99.99,,,-99.99,,2013-03-22 20:12:00,
2013-03-22 13:22:00,83.0,32.0,29.71,WNW,303,12.0,-999.0,16,-99.99,,,-99.99,,2013-03-22 20:22:00,
2013-03-22 13:32:00,84.0,34.0,29.71,WNW,290,13.0,-999.0,17,-99.99,,,-99.99,,2013-03-22 20:32:00,
2013-03-22 13:42:00,84.0,34.0,29.71,WNW,290,13.0,-999.0,17,-99.99,,,-99.99,,2013-03-22 20:42:00,
2013-03-22 13:52:00,83.0,32.0,29.70,West,270,12.0,-999.0,16,-99.99,,,-99.99,,2013-03-22 20:52:00,
2013-03-22 14:02:00,84.0,31.0,29.70,West,274,13.0,-999.0,15,-99.99,,,-99.99,,2013-03-22 21:02:00,
2013-03-22 14:12:00,84.0,31.0,29.69,WNW,284,12.0,-999.0,15,-99.99,,,-99.99,,2013-03-22 21:12:00,
2013-03-22 14:22:00,84.0,31.0,29.69,WNW,284,12.0,-999.0,15,-99.99,,,-99.99,,2013-03-22 21:22:00,
2013-03-22 14:32:00,85.0,32.0,29.69,WNW,288,12.0,-999.0,15,-99.99,,,-99.99,,2013-03-22 21:32:00,
2013-03-22 14:42:00,85.0,32.0,29.69,WNW,288,12.0,-999.0,15,-99.99,,,-99.99,,2013-03-22 21:42:00,
2013-03-22 14:52:00,86.0,31.0,29.69,WNW,284,13.0,-999.0,14,-99.99,,,-99.99,,2013-03-22 21:52:00,
2013-03-22 15:02:00,85.0,32.0,29.68,West,268,11.0,-999.0,15,-99.99,,,-99.99,,2013-03-22 22:02:00,
2013-03-22 15:12:00,85.0,32.0,29.68,West,268,11.0,-999.0,15,-99.99,,,-99.99,,2013-03-22 22:12:00,
2013-03-22 15:22:00,86.0,31.0,29.68,WNW,298,11.0,-999.0,14,-99.99,,,-99.99,,2013-03-22 22:22:00,
2013-03-22 15:32:00,85.0,30.0,29.68,West,270,9.0,-999.0,14,-99.99,,,-99.99,,2013-03-22 22:32:00,
2013-03-22 15:42:00,85.0,30.0,29.68,West,270,9.0,-999.0,14,-99.99,,,-99.99,,2013-03-22 22:42:00,
2013-03-22 15:52:00,86.0,31.0,29.67,NW,309,13.0,-999.0,14,-99.99,,,-99.99,,2013-03-22 22:52:00,
2013-03-22 16:02:00,86.0,33.0,29.67,WNW,290,11.0,-999.0,15,-99.99,,,-99.99,,2013-03-22 23:02:00,
2013-03-22 16:12:00,86.0,33.0,29.67,WNW,290,11.0,-999.0,15,-99.99,,,-99.99,,2013-03-22 23:12:00,
2013-03-22 16:22:00,86.0,33.0,29.67,WNW,303,12.0,-999.0,15,-99.99,,,-99.99,,2013-03-22 23:22:00,
2013-03-22 16:32:00,85.0,29.0,29.67,WNW,286,11.0,-999.0,13,-99.99,,,-99.99,,2013-03-22 23:32:00,
2013-03-22 16:42:00,85.0,29.0,29.67,WNW,286,11.0,-999.0,13,-99.99,,,-99.99,,2013-03-22 23:42:00,
2013-03-22 16:52:00,86.0,31.0,29.67,West,273,12.0,-999.0,14,-99.99,,,-99.99,,2013-03-22 23:52:00,
2013-03-22 17:02:00,85.0,30.0,29.67,WNW,298,10.0,-999.0,14,-99.99,,,-99.99,,2013-03-23 00:02:00,
2013-03-22 17:12:00,85.0,30.0,29.67,WNW,298,10.0,-999.0,14,-99.99,,,-99.99,,2013-03-23 00:12:00,
2013-03-22 17:22:00,85.0,30.0,29.67,WNW,290,12.0,-999.0,14,-99.99,,,-99.99,,2013-03-23 00:22:00,
2013-03-22 17:32:00,84.0,34.0,29.66,WNW,293,9.0,-999.0,17,-99.99,,,-99.99,,2013-03-23 00:32:00,
2013-03-22 17:42:00,84.0,34.0,29.66,WNW,293,9.0,-999.0,17,-99.99,,,-99.99,,2013-03-23 00:42:00,
2013-03-22 17:52:00,84.0,36.0,29.66,WNW,293,8.0,-999.0,18,-99.99,,,-99.99,,2013-03-23 00:52:00,
2013-03-22 18:03:00,84.0,30.0,29.66,WNW,302,10.0,-999.0,14,-99.99,,,-99.99,,2013-03-23 01:03:00,
2013-03-22 18:11:00,84.0,30.0,29.66,WNW,302,10.0,-999.0,14,-99.99,,,-99.99,,2013-03-23 01:11:00,
2013-03-22 18:22:00,83.0,31.0,29.66,WNW,289,6.0,-999.0,15,-99.99,,,-99.99,,2013-03-23 01:22:00,
2013-03-22 18:32:00,82.0,33.0,29.67,West,281,7.0,-999.0,17,-99.99,,,-99.99,,2013-03-23 01:32:00,
2013-03-22 18:42:00,82.0,33.0,29.67,West,281,7.0,-999.0,17,-99.99,,,-99.99,,2013-03-23 01:42:00,
2013-03-22 18:52:00,80.0,31.0,29.67,WNW,290,5.0,-999.0,17,-99.99,,,-99.99,,2013-03-23 01:52:00,
2013-03-22 19:02:00,77.0,35.0,29.67,WNW,298,6.0,-999.0,22,-99.99,,,-99.99,,2013-03-23 02:02:00,
2013-03-22 19:22:00,75.0,36.0,29.67,WNW,303,6.0,-999.0,24,-99.99,,,-99.99,,2013-03-23 02:22:00,
2013-03-22 19:31:00,73.0,31.0,29.68,WNW,303,5.0,-999.0,21,-99.99,,,-99.99,,2013-03-23 02:31:00,
2013-03-22 19:52:00,73.0,37.0,29.69,West,278,5.0,-999.0,27,-99.99,,,-99.99,,2013-03-23 02:52:00,
2013-03-22 20:02:00,73.0,37.0,29.69,West,277,4.0,-999.0,27,-99.99,,,-99.99,,2013-03-23 03:02:00,
2013-03-22 20:12:00,73.0,37.0,29.69,West,277,4.0,-999.0,27,-99.99,,,-99.99,,2013-03-23 03:12:00,
2013-03-22 20:22:00,73.0,36.0,29.70,WNW,290,5.0,-999.0,26,-99.99,,,-99.99,,2013-03-23 03:22:00,
2013-03-22 20:33:00,71.0,38.0,29.71,North,349,2.0,-999.0,30,-99.99,,,-99.99,,2013-03-23 03:33:00,
2013-03-22 21:02:00,64.0,42.0,29.72,NNW,347,3.0,-999.0,45,-99.99,,,-99.99,,2013-03-23 04:02:00,
2013-03-22 21:22:00,67.0,38.0,29.72,NNW,330,2.0,-999.0,35,-99.99,,,-99.99,,2013-03-23 04:22:00,
2013-03-22 21:32:00,66.0,38.0,29.73,NNW,327,4.0,-999.0,36,-99.99,,,-99.99,,2013-03-23 04:32:00,
2013-03-22 21:52:00,66.0,38.0,29.73,NW,319,4.0,-999.0,36,-99.99,,,-99.99,,2013-03-23 04:52:00,
2013-03-22 22:02:00,67.0,36.0,29.74,NW,316,4.0,-999.0,32,-99.99,,,-99.99,,2013-03-23 05:02:00,
2013-03-22 22:22:00,66.0,36.0,29.74,NW,316,3.0,-999.0,33,-99.99,,,-99.99,,2013-03-23 05:22:00,
2013-03-22 22:32:00,64.0,39.0,29.74,NW,319,4.0,-999.0,39,-99.99,,,-99.99,,2013-03-23 05:32:00,
2013-03-22 22:52:00,68.0,35.0,29.74,NW,315,4.0,-999.0,30,-99.99,,,-99.99,,2013-03-23 05:52:00,
2013-03-22 23:02:00,66.0,35.0,29.75,NW,315,1.0,-999.0,32,-99.99,,,-99.99,,2013-03-23 06:02:00,
2013-03-22 23:12:00,66.0,35.0,29.75,NW,315,1.0,-999.0,32,-99.99,,,-99.99,,2013-03-23 06:12:00,
2013-03-22 23:22:00,64.0,37.0,29.75,NW,315,1.0,-999.0,36,-99.99,,,-99.99,,2013-03-23 06:22:00,
2013-03-22 23:32:00,64.0,37.0,29.75,NW,315,1.0,-999.0,36,-99.99,,,-99.99,,2013-03-23 06:32:00,
2013-03-22 23:42:00,64.0,37.0,29.75,NW,315,1.0,-999.0,36,-99.99,,,-99.99,,2013-03-23 06:42:00,
2013-03-22 23:51:00,61.0,36.0,29.76,NW,315,2.0,-999.0,39,-99.99,,,-99.99,,2013-03-23 06:51:00,